Time;durP1;ratioP1;P1;durP2;ratioP2;P2;SDS_P1;SDS_P2;PMS_P1;PMS_P2;Temp;Humidity;BMP_temperature;BMP_pressure;BME280_temperature;BME280_humidity;BME280_pressure;Samples;Min_cycle;Max_cycle;Signal;HPM_P1;HPM_P2
2022/05/21 00:01:03;;;;;;;2.37;2.20;;;17.80;1.00;;;;;;5097471;27;20571;-84
2022/05/21 00:03:31;;;;;;;2.77;1.60;;;17.70;1.00;;;;;;5103769;27;20455;-83
2022/05/21 00:05:58;;;;;;;3.37;1.77;;;17.70;1.00;;;;;;5096225;27;21379;-82
2022/05/21 00:08:25;;;;;;;2.07;1.97;;;17.60;1.00;;;;;;5097975;27;20460;-82
2022/05/21 00:10:52;;;;;;;1.70;1.60;;;17.60;1.00;;;;;;5101216;27;20481;-82
2022/05/21 00:13:19;;;;;;;2.23;2.03;;;17.60;1.00;;;;;;5099501;27;20581;-84
2022/05/21 00:15:46;;;;;;;5.10;1.80;;;17.60;1.00;;;;;;5097373;27;20461;-84
2022/05/21 00:18:13;;;;;;;2.87;2.20;;;17.50;1.00;;;;;;5100200;27;24765;-83
2022/05/21 00:20:50;;;;;;;2.90;2.60;;;17.40;1.00;;;;;;5095573;28;21033;-83
2022/05/21 00:23:20;;;;;;;1.90;1.70;;;17.30;1.00;;;;;;5100393;27;20465;-83
2022/05/21 00:25:49;;;;;;;3.77;2.47;;;17.30;1.00;;;;;;5099102;27;20450;-82
2022/05/21 00:28:16;;;;;;;1.87;1.77;;;17.30;1.00;;;;;;5105002;27;20508;-84
2022/05/21 00:30:44;;;;;;;3.10;1.80;;;17.30;1.00;;;;;;5101764;28;20539;-83
2022/05/21 00:33:11;;;;;;;2.13;1.93;;;17.30;1.00;;;;;;5101499;27;20524;-82
2022/05/21 00:35:38;;;;;;;2.40;2.20;;;17.30;1.00;;;;;;5093167;27;21129;-83
2022/05/21 00:38:07;;;;;;;3.00;2.20;;;17.30;1.00;;;;;;5099446;27;20434;-84
2022/05/21 00:40:35;;;;;;;2.67;2.20;;;17.30;1.00;;;;;;5101445;27;20470;-84
2022/05/21 00:43:02;;;;;;;2.77;2.20;;;17.30;1.00;;;;;;5101477;27;20453;-82
2022/05/21 00:45:30;;;;;;;2.77;1.87;;;17.20;1.00;;;;;;5096379;27;20442;-83
2022/05/21 00:47:56;;;;;;;1.90;1.70;;;17.20;1.00;;;;;;5097211;27;20488;-83
2022/05/21 00:50:28;;;;;;;3.50;2.00;;;17.30;1.00;;;;;;5103263;27;21036;-84
2022/05/21 00:52:55;;;;;;;2.00;1.90;;;17.30;1.00;;;;;;5100158;27;20560;-83
2022/05/21 00:55:29;;;;;;;3.20;2.27;;;17.30;1.00;;;;;;5096771;28;22666;-83
2022/05/21 01:00:43;;;;;;;2.63;2.43;;;17.30;1.00;;;;;;5095734;27;20567;-82
2022/05/21 01:03:12;;;;;;;2.60;2.17;;;17.30;1.00;;;;;;5100771;27;20466;-83
2022/05/21 01:05:39;;;;;;;3.03;1.90;;;17.20;1.00;;;;;;5097996;27;20548;-83
2022/05/21 01:08:07;;;;;;;2.07;1.97;;;17.20;1.00;;;;;;5098795;27;21381;-83
2022/05/21 01:10:39;;;;;;;2.60;2.20;;;17.10;1.00;;;;;;5098267;27;20477;-84
2022/05/21 01:13:11;;;;;;;2.80;2.17;;;17.10;1.00;;;;;;5099591;27;20552;-84
2022/05/21 01:15:41;;;;;;;2.57;2.37;;;17.00;1.00;;;;;;5104565;27;20488;-83
2022/05/21 01:18:08;;;;;;;4.17;2.03;;;16.90;1.00;;;;;;5097798;27;20430;-83
2022/05/21 01:20:37;;;;;;;3.03;2.57;;;16.80;1.00;;;;;;5098860;27;21184;-82
2022/05/21 01:23:06;;;;;;;2.80;2.60;;;16.70;1.00;;;;;;5101285;27;20502;-83
2022/05/21 01:25:35;;;;;;;2.60;2.00;;;16.70;1.00;;;;;;5099644;27;20494;-83
2022/05/21 01:28:02;;;;;;;2.33;2.13;;;16.60;1.00;;;;;;5100238;27;20948;-83
2022/05/21 01:30:34;;;;;;;2.63;2.00;;;16.50;1.00;;;;;;5101445;27;20814;-84
2022/05/21 01:33:04;;;;;;;2.53;2.10;;;16.50;1.00;;;;;;5096765;27;20489;-84
2022/05/21 01:35:31;;;;;;;8.63;2.67;;;16.40;1.00;;;;;;5093041;27;21400;-84
2022/05/21 01:37:58;;;;;;;3.00;2.17;;;16.30;1.00;;;;;;5105455;27;20461;-83
2022/05/21 01:40:26;;;;;;;6.20;2.07;;;16.30;1.00;;;;;;5098756;27;20485;-85
2022/05/21 01:45:33;;;;;;;2.13;2.03;;;16.30;1.00;;;;;;5098812;27;20438;-84
2022/05/21 01:48:02;;;;;;;2.13;2.03;;;16.30;1.00;;;;;;5100272;28;20465;-83
2022/05/21 01:50:29;;;;;;;4.07;2.40;;;16.30;1.00;;;;;;5098542;27;20473;-81
2022/05/21 01:52:56;;;;;;;3.80;2.30;;;16.20;1.00;;;;;;5098835;27;20508;-83
2022/05/21 01:55:22;;;;;;;4.17;1.90;;;16.20;1.00;;;;;;5095716;27;20477;-83
2022/05/21 01:57:51;;;;;;;2.20;2.00;;;16.20;1.00;;;;;;5100673;27;20496;-84
2022/05/21 02:00:19;;;;;;;2.47;2.27;;;16.20;1.00;;;;;;5099284;28;20446;-83
2022/05/21 02:02:46;;;;;;;3.23;2.93;;;16.10;1.00;;;;;;5100119;27;20565;-83
2022/05/21 02:05:13;;;;;;;6.53;2.83;;;16.10;1.00;;;;;;5096720;27;21103;-83
2022/05/21 02:07:40;;;;;;;3.90;2.67;;;16.00;1.00;;;;;;5095533;27;20466;-83
2022/05/21 02:10:08;;;;;;;2.77;2.30;;;16.00;1.00;;;;;;5097700;27;20481;-84
2022/05/21 02:12:35;;;;;;;2.20;2.00;;;16.00;1.00;;;;;;5102811;27;20453;-84
2022/05/21 02:15:04;;;;;;;6.00;2.73;;;16.00;1.00;;;;;;5098829;28;21269;-84
2022/05/21 02:17:30;;;;;;;2.90;2.70;;;15.90;1.00;;;;;;5104281;27;20555;-84
2022/05/21 02:19:57;;;;;;;2.67;2.47;;;16.00;1.00;;;;;;5099347;28;20928;-83
2022/05/21 02:22:24;;;;;;;4.67;3.10;;;15.90;1.00;;;;;;5102863;27;20518;-83
2022/05/21 02:24:50;;;;;;;2.23;1.93;;;16.00;1.00;;;;;;5097558;27;20495;-84
2022/05/21 02:27:17;;;;;;;3.10;2.60;;;16.00;1.00;;;;;;5097419;27;20459;-85
2022/05/21 02:29:44;;;;;;;4.23;2.50;;;16.00;1.00;;;;;;5098393;27;20453;-83
2022/05/21 02:32:14;;;;;;;3.13;2.83;;;16.00;1.00;;;;;;5100390;27;21138;-84
2022/05/21 02:34:41;;;;;;;2.80;2.53;;;15.90;1.00;;;;;;5103803;27;20863;-83
2022/05/21 02:39:54;;;;;;;3.40;2.17;;;15.90;1.00;;;;;;5101043;27;20486;-84
2022/05/21 02:45:06;;;;;;;2.77;2.50;;;15.90;1.00;;;;;;5086624;27;20449;-84
2022/05/21 02:47:34;;;;;;;4.13;2.50;;;15.90;1.00;;;;;;5107846;27;20519;-83
2022/05/21 02:50:01;;;;;;;3.53;2.67;;;15.90;1.00;;;;;;5098758;27;20530;-83
2022/05/21 02:52:28;;;;;;;2.90;2.70;;;15.90;1.00;;;;;;5097745;27;21188;-83
2022/05/21 02:54:54;;;;;;;2.77;2.57;;;15.90;1.00;;;;;;5105000;27;20528;-83
2022/05/21 02:57:21;;;;;;;2.87;2.67;;;15.90;1.00;;;;;;5100260;27;20467;-85
2022/05/21 02:59:49;;;;;;;3.73;2.87;;;15.90;1.00;;;;;;5102919;27;20422;-83
2022/05/21 03:02:15;;;;;;;3.77;3.20;;;15.90;1.00;;;;;;5097155;27;20550;-85
2022/05/21 03:04:43;;;;;;;3.73;2.80;;;15.90;1.00;;;;;;5079035;28;20459;-83
2022/05/21 03:07:10;;;;;;;2.63;2.43;;;15.90;1.00;;;;;;5087624;27;20459;-83
2022/05/21 03:12:21;;;;;;;3.60;2.50;;;15.90;1.00;;;;;;5097803;27;20522;-83
2022/05/21 03:14:48;;;;;;;3.63;2.43;;;15.80;1.00;;;;;;5096302;27;20458;-85
2022/05/21 03:17:14;;;;;;;3.10;2.90;;;15.80;1.00;;;;;;5097443;27;20457;-83
2022/05/21 03:19:42;;;;;;;2.50;2.40;;;15.80;1.00;;;;;;5095602;27;20631;-84
2022/05/21 03:22:09;;;;;;;2.90;2.60;;;15.80;1.00;;;;;;5099798;27;20502;-84
2022/05/21 03:24:36;;;;;;;3.00;2.67;;;15.80;1.00;;;;;;5099681;27;21029;-84
2022/05/21 03:27:02;;;;;;;4.40;2.97;;;15.70;1.00;;;;;;5104930;28;20959;-83
2022/05/21 03:29:29;;;;;;;4.10;2.80;;;15.60;1.00;;;;;;5105160;27;20504;-84
2022/05/21 03:31:57;;;;;;;3.10;2.80;;;15.60;1.00;;;;;;5099395;27;20460;-83
2022/05/21 03:34:24;;;;;;;3.40;3.10;;;15.60;1.00;;;;;;5099552;27;20979;-84
2022/05/21 03:36:54;;;;;;;4.37;3.03;;;15.60;1.00;;;;;;5101824;27;20454;-83
2022/05/21 03:39:21;;;;;;;3.10;2.87;;;15.50;1.00;;;;;;5101266;27;20507;-84
2022/05/21 03:41:48;;;;;;;3.23;2.93;;;15.50;1.00;;;;;;5102668;27;20557;-83
2022/05/21 03:44:15;;;;;;;3.17;2.60;;;15.40;1.00;;;;;;5101410;27;20501;-84
2022/05/21 03:46:41;;;;;;;3.00;2.70;;;15.30;1.00;;;;;;5101724;27;20527;-84
2022/05/21 03:49:08;;;;;;;2.90;2.50;;;15.30;1.00;;;;;;5104316;27;20461;-84
2022/05/21 03:51:37;;;;;;;2.37;2.17;;;15.30;1.00;;;;;;5106567;27;20418;-84
2022/05/21 03:54:05;;;;;;;2.70;2.50;;;15.20;1.00;;;;;;5099330;27;20480;-85
2022/05/21 03:56:32;;;;;;;2.57;2.20;;;15.20;1.00;;;;;;5103535;27;20452;-84
2022/05/21 03:58:58;;;;;;;2.50;2.30;;;15.00;1.00;;;;;;5104144;27;20540;-84
2022/05/21 04:01:25;;;;;;;2.17;1.97;;;15.00;1.00;;;;;;5101796;27;20485;-82
2022/05/21 04:03:54;;;;;;;3.00;2.40;;;15.00;1.00;;;;;;5091657;27;20552;-82
2022/05/21 04:06:21;;;;;;;2.67;2.10;;;15.00;1.00;;;;;;5096260;27;20457;-83
2022/05/21 04:08:49;;;;;;;2.30;2.10;;;15.00;1.00;;;;;;5102100;28;21025;-83
2022/05/21 04:11:17;;;;;;;2.90;2.60;;;15.00;1.00;;;;;;5103026;27;20454;-83
2022/05/21 04:13:44;;;;;;;3.93;2.60;;;15.00;1.00;;;;;;5104076;27;20527;-83
2022/05/21 04:16:10;;;;;;;2.50;1.90;;;15.00;1.00;;;;;;5104765;27;20434;-83
2022/05/21 04:18:37;;;;;;;2.43;2.07;;;14.90;1.00;;;;;;5103645;27;20485;-83
2022/05/21 04:21:04;;;;;;;2.10;1.90;;;14.80;1.00;;;;;;5085908;28;20446;-83
2022/05/21 04:23:30;;;;;;;2.50;2.30;;;14.70;1.00;;;;;;5098321;27;20617;-83
2022/05/21 04:25:57;;;;;;;2.30;2.10;;;14.60;1.00;;;;;;5105661;28;20918;-83
2022/05/21 04:28:25;;;;;;;3.40;1.97;;;14.60;1.00;;;;;;5100829;27;20473;-83
2022/05/21 04:30:52;;;;;;;2.30;2.10;;;14.60;1.00;;;;;;5107638;27;20457;-83
2022/05/21 04:33:18;;;;;;;3.53;2.57;;;14.60;1.00;;;;;;5076162;27;20520;-83
2022/05/21 04:38:32;;;;;;;3.07;2.20;;;14.60;1.00;;;;;;5101524;27;20505;-83
2022/05/21 04:40:59;;;;;;;2.87;2.67;;;14.60;1.00;;;;;;5098343;27;20466;-83
2022/05/21 04:43:27;;;;;;;2.53;1.67;;;14.70;1.00;;;;;;5100991;27;20494;-83
2022/05/21 04:45:55;;;;;;;2.17;1.80;;;14.60;1.00;;;;;;5103719;27;20465;-83
2022/05/21 04:48:22;;;;;;;3.40;2.00;;;14.50;1.00;;;;;;5099168;27;20502;-83
2022/05/21 04:50:48;;;;;;;2.87;2.10;;;14.50;1.00;;;;;;5103176;27;20428;-84
2022/05/21 04:53:15;;;;;;;1.63;1.53;;;14.60;1.00;;;;;;5099433;27;20569;-84
2022/05/21 04:55:41;;;;;;;3.77;1.40;;;14.60;1.00;;;;;;5099705;27;20512;-82
2022/05/21 04:58:08;;;;;;;1.80;1.70;;;14.70;1.00;;;;;;5101457;27;21028;-82
2022/05/21 05:00:36;;;;;;;2.63;1.50;;;14.70;1.00;;;;;;5099468;27;20421;-81
2022/05/21 05:03:10;;;;;;;3.27;1.70;;;14.80;1.00;;;;;;5097154;27;20462;-82
2022/05/21 05:05:38;;;;;;;3.70;1.90;;;15.00;1.00;;;;;;5098103;27;22883;-82
2022/05/21 05:08:05;;;;;;;2.10;1.90;;;15.00;1.00;;;;;;5103080;28;20972;-83
2022/05/21 05:10:32;;;;;;;2.40;2.20;;;14.90;1.00;;;;;;5103661;27;20478;-83
2022/05/21 05:12:59;;;;;;;2.50;2.30;;;14.90;1.00;;;;;;5095140;27;20521;-83
2022/05/21 05:15:26;;;;;;;2.93;2.50;;;14.80;1.00;;;;;;5103264;27;20458;-80
2022/05/21 05:18:00;;;;;;;2.57;2.37;;;14.70;1.00;;;;;;5103824;27;20481;-81
2022/05/21 05:20:27;;;;;;;2.53;2.33;;;14.70;1.00;;;;;;5100365;27;20469;-81
2022/05/21 05:22:53;;;;;;;3.87;2.63;;;14.70;1.00;;;;;;5102417;27;20453;-82
2022/05/21 05:25:21;;;;;;;5.00;2.40;;;14.60;1.00;;;;;;5098112;27;20450;-81
2022/05/21 05:27:48;;;;;;;2.80;2.50;;;14.60;1.00;;;;;;5102115;27;20483;-81
2022/05/21 05:30:16;;;;;;;2.67;2.47;;;14.60;1.00;;;;;;5104080;27;20506;-81
2022/05/21 05:32:43;;;;;;;4.73;3.10;;;14.80;1.00;;;;;;5103575;27;20474;-81
2022/05/21 05:35:12;;;;;;;3.67;2.57;;;14.90;1.00;;;;;;5102361;28;20513;-83
2022/05/21 05:37:39;;;;;;;2.70;2.50;;;14.90;1.00;;;;;;5104456;27;20517;-80
2022/05/21 05:40:09;;;;;;;3.27;2.63;;;14.80;1.00;;;;;;5098275;27;20469;-81
2022/05/21 05:42:37;;;;;;;4.07;2.60;;;14.80;1.00;;;;;;5098389;27;20648;-82
2022/05/21 05:45:05;;;;;;;3.60;2.10;;;14.80;1.00;;;;;;5094670;27;20410;-82
2022/05/21 05:47:33;;;;;;;3.07;2.60;;;14.80;1.00;;;;;;5098795;28;20506;-81
2022/05/21 05:50:00;;;;;;;3.90;2.90;;;14.80;1.00;;;;;;5083543;27;20452;-81
2022/05/21 05:52:29;;;;;;;3.20;3.00;;;14.70;1.00;;;;;;5076636;28;20457;-82
2022/05/21 05:54:56;;;;;;;2.50;2.30;;;14.70;1.00;;;;;;5075097;28;20443;-81
2022/05/21 05:57:24;;;;;;;3.67;2.67;;;14.80;1.00;;;;;;5078077;28;21572;-81
2022/05/21 05:59:50;;;;;;;2.73;2.53;;;15.00;1.00;;;;;;5078016;28;20467;-82
2022/05/21 06:05:07;;;;;;;3.40;2.30;;;15.00;1.00;;;;;;5073505;28;20418;-82
2022/05/21 06:07:40;;;;;;;5.23;2.57;;;15.20;1.00;;;;;;5080812;28;20537;-82
2022/05/21 06:10:08;;;;;;;3.70;2.90;;;15.20;1.00;;;;;;5085091;28;20497;-82
2022/05/21 06:12:35;;;;;;;3.33;2.60;;;15.20;1.00;;;;;;5104208;27;20464;-82
2022/05/21 06:15:02;;;;;;;4.33;3.00;;;15.30;1.00;;;;;;5099320;28;20470;-82
2022/05/21 06:17:28;;;;;;;5.10;2.50;;;15.30;1.00;;;;;;5101035;28;20983;-82
2022/05/21 06:19:55;;;;;;;3.63;3.00;;;15.50;1.00;;;;;;5103666;27;20509;-82
2022/05/21 06:22:22;;;;;;;3.80;2.90;;;15.60;1.00;;;;;;5101511;27;20462;-84
2022/05/21 06:24:51;;;;;;;3.70;2.33;;;15.70;1.00;;;;;;5069093;28;20518;-85
2022/05/21 06:27:58;;;;;;;4.97;2.88;;;15.60;1.00;;;;;;5045925;28;20486;-87
2022/05/21 06:34:09;;;;;;;4.10;2.53;;;15.70;1.00;;;;;;5057078;28;20450;-86
2022/05/21 06:36:42;;;;;;;3.20;2.20;;;15.80;1.00;;;;;;5067262;28;21993;-84
2022/05/21 06:39:09;;;;;;;4.33;2.33;;;15.90;1.00;;;;;;5083237;27;20579;-86
2022/05/21 06:41:41;;;;;;;2.77;2.50;;;15.90;1.00;;;;;;5065256;28;20447;-86
2022/05/21 06:44:10;;;;;;;2.73;2.53;;;15.80;1.00;;;;;;5069114;28;20434;-87
2022/05/21 06:46:43;;;;;;;3.50;2.70;;;15.90;1.00;;;;;;5073654;28;20522;-86
2022/05/21 06:49:10;;;;;;;3.30;2.30;;;16.00;1.00;;;;;;5054444;28;20446;-86
2022/05/21 06:51:49;;;;;;;2.50;2.30;;;16.10;1.00;;;;;;5075962;28;21215;-86
2022/05/21 06:54:30;;;;;;;4.67;2.40;;;16.10;1.00;;;;;;5097674;27;20556;-85
2022/05/21 07:01:25;;;;;;;3.23;2.57;;;16.20;1.00;;;;;;5033996;28;20558;-85
2022/05/21 07:07:32;;;;;;;2.93;2.60;;;16.10;1.00;;;;;;5045122;28;20434;-87
2022/05/21 07:09:41;;;;;;;7.63;2.20;;;16.10;1.00;;;;;;4251212;26;20488;-80
2022/05/21 07:12:09;;;;;;;2.47;2.23;;;16.00;1.00;;;;;;5039781;28;20488;-81
2022/05/21 07:14:35;;;;;;;2.10;1.90;;;16.00;1.00;;;;;;5057457;28;20566;-79
2022/05/21 07:17:04;;;;;;;1.87;1.77;;;16.00;1.00;;;;;;5062517;28;20456;-79
2022/05/21 07:19:30;;;;;;;1.73;1.50;;;16.10;1.00;;;;;;5063935;28;20429;-79
2022/05/21 07:21:57;;;;;;;5.00;1.80;;;16.20;1.00;;;;;;5045758;28;20538;-78
2022/05/21 07:24:26;;;;;;;4.07;2.40;;;16.10;1.00;;;;;;5034582;28;20467;-81
2022/05/21 07:26:53;;;;;;;5.60;2.03;;;16.10;1.00;;;;;;5052906;28;21141;-81
2022/05/21 07:29:20;;;;;;;1.90;1.50;;;16.20;1.00;;;;;;5058981;28;20492;-80
2022/05/21 07:31:46;;;;;;;2.50;1.70;;;16.20;1.00;;;;;;5063658;28;20915;-80
2022/05/21 07:34:15;;;;;;;1.90;1.50;;;16.10;1.00;;;;;;5062327;28;21021;-79
2022/05/21 07:36:42;;;;;;;3.70;1.70;;;16.10;1.00;;;;;;5062865;28;20463;-79
2022/05/21 07:39:08;;;;;;;2.23;2.03;;;16.10;1.00;;;;;;5059468;28;20403;-76
2022/05/21 07:41:37;;;;;;;3.10;2.10;;;16.20;1.00;;;;;;5062199;28;20443;-81
2022/05/21 07:44:05;;;;;;;3.60;1.70;;;16.20;1.00;;;;;;5059061;28;20459;-82
2022/05/21 07:46:31;;;;;;;3.50;2.13;;;16.10;1.00;;;;;;5060020;28;20471;-80
2022/05/21 07:48:58;;;;;;;3.00;1.80;;;16.10;1.00;;;;;;5059274;28;20433;-80
2022/05/21 07:51:26;;;;;;;2.70;1.90;;;16.10;1.00;;;;;;5059420;28;20557;-80
2022/05/21 07:53:52;;;;;;;3.00;2.80;;;16.20;1.00;;;;;;5056621;28;20564;-80
2022/05/21 07:56:19;;;;;;;4.03;2.00;;;16.20;1.00;;;;;;5059723;28;20524;-78
2022/05/21 07:58:46;;;;;;;3.17;2.10;;;16.10;1.00;;;;;;5058027;28;20452;-81
2022/05/21 08:01:13;;;;;;;3.00;2.00;;;16.20;1.00;;;;;;5056217;28;20969;-79
2022/05/21 08:03:39;;;;;;;4.93;1.80;;;16.40;1.00;;;;;;5059323;28;20460;-79
2022/05/21 08:06:06;;;;;;;2.80;2.43;;;16.60;1.00;;;;;;5067186;28;20448;-77
2022/05/21 08:08:34;;;;;;;3.23;1.90;;;16.80;1.00;;;;;;5060046;28;20522;-80
2022/05/21 08:11:01;;;;;;;4.30;2.30;;;17.10;1.00;;;;;;5069287;28;20463;-81
2022/05/21 08:13:28;;;;;;;3.73;2.27;;;17.10;1.00;;;;;;5065442;28;20463;-79
2022/05/21 08:15:56;;;;;;;2.70;2.20;;;17.30;1.00;;;;;;5051468;28;20435;-79
2022/05/21 08:18:23;;;;;;;2.33;2.10;;;17.50;1.00;;;;;;5052284;28;20474;-79
2022/05/21 08:20:53;;;;;;;3.10;2.30;;;17.60;1.00;;;;;;5043259;28;20480;-81
2022/05/21 08:28:51;;;;;;;3.00;2.13;;;17.70;1.00;;;;;;5067208;28;20475;-78
2022/05/21 08:31:18;;;;;;;3.60;2.57;;;17.70;1.00;;;;;;5062703;28;20505;-78
2022/05/21 08:33:45;;;;;;;6.10;2.40;;;17.90;1.00;;;;;;5064874;28;20638;-80
2022/05/21 08:36:12;;;;;;;3.00;1.93;;;18.20;1.00;;;;;;5055402;28;20515;-78
2022/05/21 08:38:41;;;;;;;4.30;2.17;;;18.40;1.00;;;;;;5065643;28;20561;-78
2022/05/21 08:41:12;;;;;;;2.20;2.00;;;18.70;1.00;;;;;;5062133;28;20467;-79
2022/05/21 08:43:51;;;;;;;4.57;1.80;;;18.80;1.00;;;;;;5041376;28;20468;-78
2022/05/21 08:46:28;;;;;;;2.93;1.90;;;19.00;1.00;;;;;;5057926;28;20573;-77
2022/05/21 08:48:57;;;;;;;4.70;2.27;;;19.10;1.00;;;;;;5066036;28;20595;-78
2022/05/21 08:51:28;;;;;;;5.20;2.10;;;19.30;1.00;;;;;;5064793;28;20483;-79
2022/05/21 08:53:56;;;;;;;2.70;1.83;;;19.30;1.00;;;;;;5065924;28;20472;-78
2022/05/21 08:56:25;;;;;;;4.80;2.73;;;19.30;1.00;;;;;;5060485;28;20889;-79
2022/05/21 08:58:55;;;;;;;3.03;2.33;;;19.00;1.00;;;;;;5061748;28;20468;-77
2022/05/21 09:01:24;;;;;;;2.10;1.90;;;18.50;1.00;;;;;;5066175;28;20507;-81
2022/05/21 09:03:54;;;;;;;5.10;2.20;;;18.10;1.00;;;;;;5061856;28;21911;-78
2022/05/21 09:06:34;;;;;;;3.77;2.57;;;17.70;1.00;;;;;;5063322;28;20435;-78
2022/05/21 09:09:08;;;;;;;5.80;2.37;;;17.20;1.00;;;;;;5058263;28;20432;-80
2022/05/21 09:11:41;;;;;;;3.47;3.17;;;16.60;1.00;;;;;;5064467;28;20521;-80
2022/05/21 09:14:14;;;;;;;3.17;2.87;;;16.20;1.00;;;;;;5060066;28;20460;-80
2022/05/21 09:16:55;;;;;;;4.03;3.23;;;16.10;1.00;;;;;;5065275;28;20574;-79
2022/05/21 09:19:23;;;;;;;3.97;3.23;;;16.40;1.00;;;;;;5066569;28;20420;-79
2022/05/21 09:21:55;;;;;;;3.10;2.80;;;16.70;1.00;;;;;;5060307;28;20484;-79
2022/05/21 09:24:38;;;;;;;3.60;2.47;;;17.00;1.00;;;;;;5065175;28;20526;-79
2022/05/21 09:27:21;;;;;;;3.97;2.43;;;17.60;1.00;;;;;;5062498;28;20452;-78
2022/05/21 09:29:48;;;;;;;3.10;2.83;;;18.20;1.00;;;;;;5059569;28;20418;-79
2022/05/21 09:32:19;;;;;;;3.10;2.63;;;18.10;1.00;;;;;;5064079;28;20491;-77
2022/05/21 09:34:59;;;;;;;2.90;2.50;;;18.00;1.00;;;;;;5064331;28;20450;-78
2022/05/21 09:37:29;;;;;;;2.80;2.50;;;17.80;1.00;;;;;;5062654;28;20536;-78
2022/05/21 09:39:56;;;;;;;3.13;2.63;;;17.70;1.00;;;;;;5059515;28;20460;-78
2022/05/21 09:45:26;;;;;;;4.13;3.73;;;17.20;1.00;;;;;;5068805;28;20430;-79
2022/05/21 09:47:54;;;;;;;4.17;3.77;;;17.00;1.00;;;;;;5062500;28;21297;-79
2022/05/21 09:50:24;;;;;;;5.07;4.03;;;16.90;1.00;;;;;;5068131;28;20429;-79
2022/05/21 09:52:53;;;;;;;4.50;3.80;;;17.10;1.00;;;;;;5033402;28;20996;-80
2022/05/21 09:55:23;;;;;;;4.30;3.90;;;17.40;1.00;;;;;;5060155;28;20550;-76
2022/05/21 09:57:52;;;;;;;6.87;4.40;;;17.60;1.00;;;;;;5059844;28;21497;-76
2022/05/21 10:00:23;;;;;;;5.47;4.90;;;18.00;1.00;;;;;;5059735;28;20466;-75
2022/05/21 10:02:52;;;;;;;5.40;4.97;;;18.40;1.00;;;;;;5045255;28;20463;-75
2022/05/21 10:05:23;;;;;;;5.37;4.97;;;18.60;1.00;;;;;;5043131;28;20895;-76
2022/05/21 10:10:59;;;;;;;7.17;5.40;;;18.40;1.00;;;;;;5059186;28;20973;-76
2022/05/21 10:13:31;;;;;;;5.87;5.30;;;18.20;1.00;;;;;;5056254;28;20463;-75
2022/05/21 10:16:05;;;;;;;10.53;6.90;;;18.10;1.00;;;;;;5057057;28;20454;-76
2022/05/21 10:18:38;;;;;;;6.40;5.90;;;18.20;1.00;;;;;;5056514;28;21834;-78
2022/05/21 10:21:13;;;;;;;7.83;7.23;;;18.40;1.00;;;;;;5057322;28;20464;-78
2022/05/21 10:23:46;;;;;;;7.47;6.77;;;18.70;1.00;;;;;;5052293;28;20480;-76
2022/05/21 10:26:31;;;;;;;7.80;7.10;;;18.90;1.00;;;;;;5059829;28;20456;-82
2022/05/21 10:29:15;;;;;;;8.30;7.60;;;18.70;1.00;;;;;;5057972;28;20474;-78
2022/05/21 10:31:49;;;;;;;8.23;7.40;;;19.40;1.00;;;;;;5059268;28;20475;-80
2022/05/21 10:34:29;;;;;;;8.40;7.60;;;20.40;1.00;;;;;;5060543;28;20467;-77
2022/05/21 10:37:11;;;;;;;7.63;7.03;;;20.40;1.00;;;;;;5055105;28;22056;-78
2022/05/21 10:40:07;;;;;;;6.70;6.20;;;21.10;1.00;;;;;;5057186;28;20589;-77
2022/05/21 10:43:17;;;;;;;7.13;6.50;;;22.50;1.00;;;;;;5058246;28;25102;-80
2022/05/21 10:45:50;;;;;;;6.43;5.83;;;23.20;1.00;;;;;;5059047;28;20480;-80
2022/05/21 10:48:49;;;;;;;7.03;6.47;;;22.90;1.00;;;;;;5059094;28;21200;-78
2022/05/21 10:51:22;;;;;;;6.43;5.83;;;24.20;1.00;;;;;;5037251;28;20457;-78
2022/05/21 10:54:06;;;;;;;5.93;5.33;;;25.30;1.00;;;;;;5062141;28;21266;-80
2022/05/21 10:56:45;;;;;;;7.67;6.10;;;26.10;1.00;;;;;;5057472;28;20568;-78
2022/05/21 10:59:35;;;;;;;5.67;4.90;;;26.20;1.00;;;;;;5057711;28;21153;-79
2022/05/21 11:02:20;;;;;;;6.83;5.70;;;24.20;1.00;;;;;;5057632;28;20983;-81
2022/05/21 11:05:02;;;;;;;8.57;6.57;;;22.50;1.00;;;;;;5056617;28;20468;-80
2022/05/21 11:07:38;;;;;;;8.97;6.10;;;21.00;1.00;;;;;;5061711;28;20483;-80
2022/05/21 11:10:24;;;;;;;8.00;6.40;;;20.20;1.00;;;;;;5054735;28;20556;-79
2022/05/21 11:12:55;;;;;;;6.80;5.90;;;19.50;1.00;;;;;;5044409;28;20590;-78
2022/05/21 11:15:34;;;;;;;6.83;5.40;;;19.20;1.00;;;;;;5036422;28;20477;-76
2022/05/21 11:18:06;;;;;;;6.47;5.43;;;19.00;1.00;;;;;;5058000;28;20477;-78
2022/05/21 11:20:37;;;;;;;6.83;6.13;;;19.20;1.00;;;;;;5054488;28;21007;-78
2022/05/21 11:23:08;;;;;;;6.57;4.80;;;19.30;1.00;;;;;;5061865;28;20534;-79
2022/05/21 11:25:41;;;;;;;6.60;5.00;;;19.40;1.00;;;;;;5057150;28;20965;-81
2022/05/21 11:28:26;;;;;;;8.90;5.20;;;19.70;1.00;;;;;;5054317;28;20498;-81
2022/05/21 11:30:56;;;;;;;7.20;5.07;;;19.80;1.00;;;;;;5054947;28;21255;-80
2022/05/21 11:38:58;;;;;;;5.97;5.10;;;19.10;1.00;;;;;;5059024;28;20463;-80
2022/05/21 11:42:09;;;;;;;7.13;5.00;;;18.90;1.00;;;;;;5057086;28;20505;-78
2022/05/21 11:44:58;;;;;;;12.33;5.00;;;19.20;1.00;;;;;;5058239;28;20551;-82
2022/05/21 11:47:40;;;;;;;5.63;4.57;;;21.30;1.00;;;;;;5049198;28;20546;-80
2022/05/21 11:50:18;;;;;;;6.27;5.20;;;23.80;1.00;;;;;;5056213;28;20456;-81
2022/05/21 11:53:11;;;;;;;5.33;4.83;;;24.20;1.00;;;;;;5058758;28;20843;-81
2022/05/21 11:55:57;;;;;;;8.90;5.10;;;22.90;1.00;;;;;;5055692;28;20455;-81
2022/05/21 11:58:28;;;;;;;5.70;4.90;;;22.30;1.00;;;;;;5053773;28;20528;-80
2022/05/21 12:00:56;;;;;;;5.40;4.90;;;22.40;1.00;;;;;;5055983;28;20482;-78
2022/05/21 12:03:26;;;;;;;7.70;5.50;;;21.80;1.00;;;;;;5060905;28;20503;-79
2022/05/21 12:05:58;;;;;;;11.10;7.40;;;20.80;1.00;;;;;;5060045;28;20475;-78
2022/05/21 12:08:39;;;;;;;5.70;4.97;;;20.10;1.00;;;;;;5057252;28;20463;-80
2022/05/21 12:11:10;;;;;;;6.70;5.83;;;19.80;1.00;;;;;;5061653;28;20466;-78
2022/05/21 12:13:59;;;;;;;7.23;5.70;;;19.50;1.00;;;;;;5060681;28;20467;-79
2022/05/21 12:16:45;;;;;;;7.60;5.60;;;19.20;1.00;;;;;;5058775;28;20505;-80
2022/05/21 12:19:12;;;;;;;7.20;5.40;;;19.00;1.00;;;;;;5056443;28;20467;-81
2022/05/21 12:22:03;;;;;;;6.50;5.20;;;18.80;1.00;;;;;;5056041;28;21836;-81
2022/05/21 12:24:36;;;;;;;7.00;5.63;;;18.60;1.00;;;;;;5040269;28;20439;-80
2022/05/21 12:27:06;;;;;;;8.60;5.47;;;18.20;1.00;;;;;;5060379;28;20967;-81
2022/05/21 12:29:43;;;;;;;7.00;4.30;;;18.20;1.00;;;;;;5038833;28;21104;-82
2022/05/21 12:32:14;;;;;;;6.70;5.33;;;18.40;1.00;;;;;;5060051;28;20839;-79
2022/05/21 12:35:23;;;;;;;5.20;4.50;;;18.60;1.00;;;;;;5064762;28;20435;-80
2022/05/21 12:38:04;;;;;;;6.87;4.87;;;18.60;1.00;;;;;;5057453;28;20474;-81
2022/05/21 12:40:39;;;;;;;6.87;5.20;;;18.50;1.00;;;;;;5061409;28;20508;-80
2022/05/21 12:43:10;;;;;;;5.97;5.10;;;18.50;1.00;;;;;;5059091;28;20540;-81
2022/05/21 12:45:42;;;;;;;10.33;5.70;;;18.20;1.00;;;;;;5057826;28;20471;-80
2022/05/21 12:48:13;;;;;;;7.23;5.00;;;18.10;1.00;;;;;;5058766;28;20493;-82
2022/05/21 12:50:48;;;;;;;6.93;5.47;;;18.30;1.00;;;;;;5055093;28;20946;-80
2022/05/21 12:53:20;;;;;;;5.60;4.73;;;18.60;1.00;;;;;;5059696;28;20542;-82
2022/05/21 12:55:57;;;;;;;6.30;5.67;;;18.80;1.00;;;;;;5058810;28;20467;-79
2022/05/21 12:58:23;;;;;;;8.77;4.47;;;19.10;1.00;;;;;;5055894;28;20614;-81
2022/05/21 13:00:52;;;;;;;8.70;5.00;;;19.40;1.00;;;;;;5063342;28;20459;-81
2022/05/21 13:03:20;;;;;;;5.60;3.93;;;20.50;1.00;;;;;;5069508;28;20520;-81
2022/05/21 13:05:52;;;;;;;4.80;3.83;;;21.20;1.00;;;;;;5060327;28;20462;-79
2022/05/21 13:08:21;;;;;;;5.20;3.80;;;21.70;1.00;;;;;;5059552;28;20533;-79
2022/05/21 13:11:01;;;;;;;6.30;3.97;;;22.00;1.00;;;;;;5059269;28;20471;-78
2022/05/21 13:13:32;;;;;;;6.70;4.00;;;22.10;1.00;;;;;;5059292;28;20491;-79
2022/05/21 13:16:01;;;;;;;6.50;3.60;;;22.10;1.00;;;;;;5056807;28;20482;-79
2022/05/21 13:18:39;;;;;;;6.90;3.80;;;22.50;1.00;;;;;;5062848;28;21298;-78
2022/05/21 13:21:17;;;;;;;6.27;3.20;;;23.00;1.00;;;;;;5061399;28;20439;-79
2022/05/21 13:24:07;;;;;;;6.90;3.23;;;23.40;1.00;;;;;;5060122;28;20900;-80
2022/05/21 13:26:37;;;;;;;5.60;2.97;;;24.10;1.00;;;;;;5060941;28;20516;-79
2022/05/21 13:29:19;;;;;;;8.23;3.37;;;23.90;1.00;;;;;;5061165;28;21824;-80
2022/05/21 13:31:48;;;;;;;5.80;4.17;;;23.10;1.00;;;;;;5059695;28;20618;-79
2022/05/21 13:34:17;;;;;;;6.90;3.33;;;22.00;1.00;;;;;;5056812;28;20480;-79
2022/05/21 13:36:50;;;;;;;8.50;3.40;;;21.20;1.00;;;;;;5059092;28;20968;-80
2022/05/21 13:39:23;;;;;;;5.30;2.93;;;21.40;1.00;;;;;;5059460;28;20475;-80
2022/05/21 13:41:51;;;;;;;4.67;2.30;;;22.60;1.00;;;;;;5061892;28;20467;-81
2022/05/21 13:44:24;;;;;;;5.00;1.80;;;24.00;1.00;;;;;;5061417;28;20558;-81
2022/05/21 13:46:56;;;;;;;4.47;1.40;;;25.40;1.00;;;;;;5062321;28;21069;-80
2022/05/21 13:49:28;;;;;;;5.17;1.77;;;26.80;1.00;;;;;;5059731;28;20468;-80
2022/05/21 13:51:55;;;;;;;5.20;2.13;;;27.70;1.00;;;;;;5055045;28;20479;-82
2022/05/21 13:54:28;;;;;;;6.73;2.27;;;26.80;1.00;;;;;;5063675;28;21108;-81
2022/05/21 13:57:14;;;;;;;5.27;1.90;;;25.10;1.00;;;;;;5058838;28;20496;-82
2022/05/21 13:59:52;;;;;;;5.10;2.30;;;24.10;1.00;;;;;;5056985;28;21425;-82
2022/05/21 14:02:27;;;;;;;5.97;1.77;;;23.20;1.00;;;;;;5060215;28;20451;-82
2022/05/21 14:04:55;;;;;;;4.53;2.07;;;23.50;1.00;;;;;;5059243;28;21788;-80